createdAt,value
2018-03-02T00:00:27.527Z,-6.80
2018-03-02T00:02:56.219Z,-6.80
2018-03-02T00:05:24.901Z,-6.80
2018-03-02T00:07:54.403Z,-6.70
2018-03-02T00:10:23.654Z,-6.70
2018-03-02T00:12:53.094Z,-6.70
2018-03-02T00:15:21.919Z,-6.70
2018-03-02T00:17:50.587Z,-6.70
2018-03-02T00:20:19.699Z,-6.70
2018-03-02T00:22:48.393Z,-6.70
2018-03-02T00:25:17.076Z,-6.80
2018-03-02T00:27:45.767Z,-6.70
2018-03-02T00:30:14.452Z,-6.70
2018-03-02T00:32:44.088Z,-6.70
2018-03-02T00:35:13.540Z,-6.80
2018-03-02T00:37:42.225Z,-6.80
2018-03-02T00:40:10.255Z,-6.80
2018-03-02T00:42:38.969Z,-6.70
2018-03-02T00:45:07.304Z,-6.80
2018-03-02T00:47:36.000Z,-6.80
2018-03-02T00:50:04.365Z,-6.70
2018-03-02T00:52:33.052Z,-6.70
2018-03-02T00:55:01.392Z,-6.80
2018-03-02T00:57:30.068Z,-7.00
2018-03-02T00:59:58.762Z,-7.00
2018-03-02T01:02:27.430Z,-7.00
2018-03-02T01:04:55.825Z,-7.10
2018-03-02T01:07:25.451Z,-7.10
2018-03-02T01:09:54.883Z,-7.30
2018-03-02T01:12:24.195Z,-7.30
2018-03-02T01:14:52.875Z,-7.20
2018-03-02T01:17:23.295Z,-7.20
2018-03-02T01:19:51.934Z,-7.30
2018-03-02T01:22:20.644Z,-7.30
2018-03-02T01:24:49.743Z,-7.20
2018-03-02T01:27:18.434Z,-7.20
2018-03-02T01:29:46.969Z,-7.10
2018-03-02T01:32:15.313Z,-7.10
2018-03-02T01:34:44.022Z,-7.10
2018-03-02T01:37:12.714Z,-7.10
2018-03-02T01:39:41.403Z,-7.10
2018-03-02T01:42:09.753Z,-7.00
2018-03-02T01:44:38.437Z,-7.10
2018-03-02T01:47:07.135Z,-7.10
2018-03-02T01:49:35.822Z,-7.20
2018-03-02T01:52:04.308Z,-7.20
2018-03-02T01:54:33.009Z,-7.30
2018-03-02T01:57:01.694Z,-7.30
2018-03-02T01:59:30.367Z,-7.40
2018-03-02T02:01:59.069Z,-7.30
2018-03-02T02:04:28.541Z,-7.30
2018-03-02T02:06:57.235Z,-7.30
2018-03-02T02:09:25.618Z,-7.40
2018-03-02T02:11:55.396Z,-7.40
2018-03-02T02:14:24.067Z,-7.30
2018-03-02T02:16:53.343Z,-7.30
2018-03-02T02:19:23.284Z,-7.40
2018-03-02T02:21:51.967Z,-7.40
2018-03-02T02:24:20.614Z,-7.40
2018-03-02T02:26:50.076Z,-6.70
2018-03-02T02:29:18.730Z,-7.60
2018-03-02T02:31:47.423Z,-7.70
2018-03-02T02:34:16.084Z,-7.70
2018-03-02T02:36:45.520Z,-7.60
2018-03-02T02:39:14.219Z,-7.60
2018-03-02T02:41:42.923Z,-7.60
2018-03-02T02:44:12.388Z,-7.50
2018-03-02T02:46:40.732Z,-7.50
2018-03-02T02:49:09.405Z,-7.50
2018-03-02T02:51:38.860Z,-7.50
2018-03-02T02:54:07.200Z,-7.50
2018-03-02T02:56:35.858Z,-7.70
2018-03-02T02:59:05.330Z,-7.60
2018-03-02T03:01:34.005Z,-7.60
2018-03-02T03:04:02.691Z,-7.70
2018-03-02T03:06:31.400Z,-7.60
2018-03-02T03:09:00.072Z,-7.60
2018-03-02T03:11:28.740Z,-7.70
2018-03-02T03:13:57.449Z,-7.70
2018-03-02T03:16:26.132Z,-7.70
2018-03-02T03:18:54.782Z,-7.80
2018-03-02T03:21:23.157Z,-7.90
2018-03-02T03:23:52.010Z,-7.90
2018-03-02T03:26:21.457Z,-7.90
2018-03-02T03:28:50.164Z,-7.90
2018-03-02T03:31:18.847Z,-7.90
2018-03-02T03:33:48.318Z,-8.00
2018-03-02T03:36:16.985Z,-8.00
2018-03-02T03:38:45.652Z,-8.00
2018-03-02T03:41:15.112Z,-8.10
2018-03-02T03:43:43.805Z,-8.10
2018-03-02T03:46:12.506Z,-8.00
2018-03-02T03:48:40.979Z,-7.90
2018-03-02T03:51:09.303Z,-7.90
2018-03-02T03:53:37.997Z,-8.10
2018-03-02T03:56:06.691Z,-8.10
2018-03-02T03:58:35.359Z,-8.00
2018-03-02T04:01:04.027Z,-7.90
2018-03-02T04:03:33.497Z,-7.80
2018-03-02T04:06:02.194Z,-7.80
2018-03-02T04:08:30.893Z,-7.70
2018-03-02T04:11:00.335Z,-7.70
2018-03-02T04:13:29.021Z,-7.70
2018-03-02T04:15:57.702Z,-7.70
2018-03-02T04:18:26.370Z,-7.70
2018-03-02T04:20:55.807Z,-7.70
2018-03-02T04:23:25.380Z,-7.80
2018-03-02T04:25:54.831Z,-7.80
2018-03-02T04:28:23.172Z,-7.80
2018-03-02T04:30:51.959Z,-7.90
2018-03-02T04:33:20.626Z,-7.90
2018-03-02T04:35:49.315Z,-7.80
2018-03-02T04:38:17.318Z,-7.70
2018-03-02T04:40:46.019Z,-7.80
2018-03-02T04:43:14.698Z,-7.80
2018-03-02T04:45:43.376Z,-7.90
2018-03-02T04:48:12.089Z,-7.80
2018-03-02T04:50:40.768Z,-7.80
2018-03-02T04:53:09.443Z,-7.90
2018-03-02T04:55:38.150Z,-7.90
2018-03-02T04:58:06.829Z,-7.80
2018-03-02T05:00:35.608Z,-7.80
2018-03-02T05:03:04.290Z,-7.80
2018-03-02T05:05:32.972Z,-7.90
2018-03-02T05:08:01.703Z,-8.20
2018-03-02T05:10:30.422Z,-8.30
2018-03-02T05:12:58.902Z,-8.30
2018-03-02T05:15:27.568Z,-8.30
2018-03-02T05:17:56.273Z,-8.30
2018-03-02T05:20:25.726Z,-8.10
2018-03-02T05:22:55.221Z,-8.20
2018-03-02T05:25:25.072Z,-8.20
2018-03-02T05:27:54.398Z,-8.20
2018-03-02T05:30:23.299Z,-8.00
2018-03-02T05:32:52.120Z,-8.00
2018-03-02T05:35:21.561Z,-8.20
2018-03-02T05:37:50.261Z,-8.20
2018-03-02T05:40:18.931Z,-8.30
2018-03-02T05:42:47.604Z,-8.20
2018-03-02T05:45:16.289Z,-8.20
2018-03-02T05:47:44.969Z,-8.20
2018-03-02T05:50:13.673Z,-8.30
2018-03-02T05:52:42.343Z,-8.50
2018-03-02T05:55:11.026Z,-8.40
2018-03-02T05:57:39.702Z,-8.30
2018-03-02T06:00:08.426Z,-8.30
2018-03-02T06:02:38.033Z,-8.30
2018-03-02T06:05:06.727Z,-8.40
2018-03-02T06:07:35.429Z,-8.30
2018-03-02T06:10:04.864Z,-8.30
2018-03-02T06:12:33.598Z,-8.30
2018-03-02T06:15:02.268Z,-8.30
2018-03-02T06:17:31.067Z,-8.20
2018-03-02T06:19:59.773Z,-8.30
2018-03-02T06:22:29.247Z,-8.50
2018-03-02T06:24:57.917Z,-8.50
2018-03-02T06:27:26.594Z,-8.50
2018-03-02T06:29:55.296Z,-8.50
2018-03-02T06:32:24.810Z,-8.50
2018-03-02T06:34:53.717Z,-8.60
2018-03-02T06:37:22.936Z,-8.60
2018-03-02T06:39:53.215Z,-8.50
2018-03-02T06:42:22.276Z,-8.50
2018-03-02T06:44:50.640Z,-8.40
2018-03-02T06:47:19.345Z,-8.40
2018-03-02T06:49:48.016Z,-8.30
2018-03-02T06:52:16.721Z,-8.30
2018-03-02T06:54:45.047Z,-8.40
2018-03-02T06:57:14.156Z,-8.30
2018-03-02T06:59:42.856Z,-8.30
2018-03-02T07:02:11.514Z,-8.30
2018-03-02T07:04:40.985Z,-8.30
2018-03-02T07:07:09.646Z,-8.30
2018-03-02T07:09:38.332Z,-8.40
2018-03-02T07:12:07.032Z,-8.40
2018-03-02T07:14:35.713Z,-8.40
2018-03-02T07:17:04.415Z,-8.30
2018-03-02T07:19:33.101Z,-8.20
2018-03-02T07:22:01.775Z,-8.20
2018-03-02T07:24:30.464Z,-8.30
2018-03-02T07:26:59.122Z,-8.30
2018-03-02T07:29:27.830Z,-8.20
2018-03-02T07:31:56.709Z,-8.20
2018-03-02T07:34:25.393Z,-8.20
2018-03-02T07:36:54.458Z,-8.20
2018-03-02T07:39:23.137Z,-8.10
2018-03-02T07:41:52.067Z,-8.10
2018-03-02T07:44:20.748Z,-8.00
2018-03-02T07:46:49.403Z,-7.90
2018-03-02T07:49:18.100Z,-8.00
2018-03-02T07:51:46.579Z,-8.00
2018-03-02T07:54:15.235Z,-8.00
2018-03-02T07:56:43.947Z,-8.00
2018-03-02T07:59:12.624Z,-8.00
2018-03-02T08:01:41.300Z,-8.00
2018-03-02T08:04:09.671Z,-8.00
2018-03-02T08:06:38.371Z,-8.00
2018-03-02T08:09:07.045Z,-8.00
2018-03-02T08:11:35.729Z,-7.90
2018-03-02T08:14:04.420Z,-7.90
2018-03-02T08:16:33.092Z,-7.90
2018-03-02T08:19:01.778Z,-7.90
2018-03-02T08:21:30.436Z,-7.90
2018-03-02T08:23:59.895Z,-7.80
2018-03-02T08:26:28.241Z,-7.80
2018-03-02T08:28:56.944Z,-7.70
2018-03-02T08:31:25.630Z,-7.70
2018-03-02T08:33:54.310Z,-7.70
2018-03-02T08:36:23.055Z,-7.70
2018-03-02T08:38:52.258Z,-7.60
2018-03-02T08:41:21.705Z,-7.50
2018-03-02T08:43:50.523Z,-7.50
2018-03-02T08:46:18.901Z,-7.40
2018-03-02T08:48:47.584Z,-7.50
2018-03-02T08:51:16.260Z,-7.30
2018-03-02T08:53:44.768Z,-7.40
2018-03-02T08:56:14.203Z,-7.30
2018-03-02T08:58:42.903Z,-7.30
2018-03-02T09:01:11.592Z,-7.30
2018-03-02T09:03:40.253Z,-7.30
2018-03-02T09:06:08.955Z,-7.20
2018-03-02T09:08:37.618Z,-7.20
2018-03-02T09:11:06.284Z,-7.10
2018-03-02T09:13:35.554Z,-7.00
2018-03-02T09:16:04.236Z,-7.10
2018-03-02T09:18:32.926Z,-7.00
2018-03-02T09:21:01.610Z,-7.00
2018-03-02T09:23:30.296Z,-7.00
2018-03-02T09:25:58.959Z,-7.00
2018-03-02T09:28:27.660Z,-7.00
2018-03-02T09:30:56.364Z,-6.90
2018-03-02T09:33:25.794Z,-6.80
2018-03-02T09:35:54.151Z,-6.80
2018-03-02T09:38:22.495Z,-6.80
2018-03-02T09:40:51.630Z,-6.70
2018-03-02T09:43:20.684Z,-6.70
2018-03-02T09:45:49.365Z,-6.70
2018-03-02T09:48:18.084Z,-6.60
2018-03-02T09:50:46.920Z,-6.70
2018-03-02T09:53:16.371Z,-6.60
2018-03-02T09:55:45.820Z,-6.50
2018-03-02T09:58:14.490Z,-6.50
2018-03-02T10:00:43.611Z,-6.50
2018-03-02T10:03:12.108Z,-6.50
2018-03-02T10:05:40.792Z,-6.40
2018-03-02T10:08:09.153Z,-6.40
2018-03-02T10:10:37.818Z,-6.30
2018-03-02T10:13:06.521Z,-6.20
2018-03-02T10:15:35.394Z,-6.20
2018-03-02T10:18:04.067Z,-6.20
2018-03-02T10:20:32.754Z,-6.20
2018-03-02T10:23:01.448Z,-6.10
2018-03-02T10:25:30.127Z,-6.00
2018-03-02T10:27:58.796Z,-5.90
2018-03-02T10:30:27.484Z,-5.90
2018-03-02T10:32:56.142Z,-5.90
2018-03-02T10:35:25.627Z,-5.90
2018-03-02T10:37:55.083Z,-5.80
2018-03-02T10:40:23.756Z,-5.80
2018-03-02T10:42:52.116Z,-5.70
2018-03-02T10:45:20.792Z,-5.60
2018-03-02T10:47:52.051Z,-5.60
2018-03-02T10:50:20.727Z,-5.60
2018-03-02T10:52:49.405Z,-5.60
2018-03-02T10:55:18.090Z,-5.50
2018-03-02T10:57:47.529Z,-5.40
2018-03-02T11:03:23.230Z,-5.40
2018-03-02T11:05:52.169Z,-5.30
2018-03-02T11:08:21.181Z,-5.40
2018-03-02T11:10:49.868Z,-5.40
2018-03-02T11:13:18.571Z,-5.20
2018-03-02T11:15:47.252Z,-5.20
2018-03-02T11:18:15.919Z,-5.10
2018-03-02T11:20:45.339Z,-5.00
2018-03-02T11:23:14.012Z,-5.00
2018-03-02T11:25:42.701Z,-5.00
2018-03-02T11:28:11.376Z,-5.00
2018-03-02T11:30:40.079Z,-4.90
2018-03-02T11:33:08.768Z,-4.90
2018-03-02T11:35:37.481Z,-4.90
2018-03-02T11:38:06.952Z,-4.80
2018-03-02T11:40:35.632Z,-4.80
2018-03-02T11:43:04.317Z,-4.80
2018-03-02T11:45:33.024Z,-4.70
2018-03-02T11:48:01.496Z,-4.60
2018-03-02T11:50:30.172Z,-4.70
2018-03-02T11:52:58.547Z,-4.60
2018-03-02T11:55:27.206Z,-4.60
2018-03-02T11:57:55.899Z,-4.60
2018-03-02T12:00:24.604Z,-4.60
2018-03-02T12:02:53.315Z,-4.50
2018-03-02T12:05:21.743Z,-4.40
2018-03-02T12:07:50.125Z,-4.30
2018-03-02T12:10:19.317Z,-4.30
2018-03-02T12:12:48.033Z,-4.30
2018-03-02T12:15:16.449Z,-4.30
2018-03-02T12:17:44.855Z,-4.30
2018-03-02T12:20:14.066Z,-4.10
2018-03-02T12:22:42.477Z,-4.10
2018-03-02T12:25:11.007Z,-4.10
2018-03-02T12:27:39.108Z,-4.10
2018-03-02T12:30:07.795Z,-4.10
2018-03-02T12:32:36.195Z,-4.10
2018-03-02T12:35:04.606Z,-4.10
2018-03-02T12:37:33.004Z,-4.10
2018-03-02T12:40:01.533Z,-3.90
2018-03-02T12:42:29.933Z,-3.90
2018-03-02T12:44:58.383Z,-3.90
2018-03-02T12:47:26.438Z,-3.80
2018-03-02T12:49:54.848Z,-4.00
2018-03-02T12:52:24.136Z,-4.10
2018-03-02T12:54:53.113Z,-4.00
2018-03-02T12:57:21.608Z,-3.90
2018-03-02T12:59:50.035Z,-3.80
2018-03-02T13:02:19.202Z,-3.60
2018-03-02T13:04:47.640Z,-3.60
2018-03-02T13:07:16.053Z,-3.60
2018-03-02T13:09:44.469Z,-3.50
2018-03-02T13:12:12.915Z,-3.40
2018-03-02T13:14:41.492Z,-3.60
2018-03-02T13:17:09.924Z,-3.60
2018-03-02T13:19:38.756Z,-3.50
2018-03-02T13:22:06.479Z,-3.50
2018-03-02T13:24:35.687Z,-3.40
2018-03-02T13:27:15.376Z,-3.40
2018-03-02T13:29:43.488Z,-3.40
2018-03-02T13:32:12.698Z,-3.30
2018-03-02T13:34:53.227Z,-3.40
2018-03-02T13:37:22.384Z,-3.50
2018-03-02T13:40:02.102Z,-3.50
2018-03-02T13:42:29.861Z,-3.60
2018-03-02T13:44:58.247Z,-3.70
2018-03-02T13:47:35.802Z,-3.60
2018-03-02T13:50:08.958Z,-3.70
2018-03-02T13:52:37.054Z,-3.70
2018-03-02T13:55:05.453Z,-3.60
2018-03-02T13:57:45.761Z,-3.50
2018-03-02T14:00:14.177Z,-3.50
2018-03-02T14:02:54.524Z,-3.40
2018-03-02T14:05:22.928Z,-3.40
2018-03-02T14:07:52.172Z,-3.50
2018-03-02T14:10:20.593Z,-3.50
2018-03-02T14:12:49.757Z,-3.30
2018-03-02T14:15:18.155Z,-3.40
2018-03-02T14:17:47.160Z,-3.40
2018-03-02T14:20:16.310Z,-3.40
2018-03-02T14:22:45.483Z,-3.50
2018-03-02T14:25:13.678Z,-3.50
2018-03-02T14:27:42.089Z,-3.40
2018-03-02T14:30:10.933Z,-3.50
2018-03-02T14:32:39.342Z,-3.50
2018-03-02T14:35:07.862Z,-3.50
2018-03-02T14:37:36.259Z,-3.50
2018-03-02T14:40:04.656Z,-3.50
2018-03-02T14:42:33.851Z,-3.50
2018-03-02T14:45:02.269Z,-3.60
2018-03-02T14:47:31.433Z,-3.60
2018-03-02T14:49:59.851Z,-3.60
2018-03-02T14:52:29.016Z,-3.60
2018-03-02T14:54:57.412Z,-3.70
2018-03-02T14:57:25.846Z,-3.60
2018-03-02T14:59:54.242Z,-3.70
2018-03-02T15:02:22.761Z,-3.70
2018-03-02T15:04:51.352Z,-3.70
2018-03-02T15:07:19.772Z,-3.60
2018-03-02T15:09:48.186Z,-3.60
2018-03-02T15:12:16.586Z,-3.60
2018-03-02T15:14:45.031Z,-3.50
2018-03-02T15:17:13.428Z,-3.60
2018-03-02T15:19:42.588Z,-3.50
2018-03-02T15:22:11.015Z,-3.60
2018-03-02T15:24:39.406Z,-3.50
2018-03-02T15:27:07.837Z,-3.60
2018-03-02T15:29:36.243Z,-3.60
2018-03-02T15:32:05.425Z,-3.40
2018-03-02T15:37:30.209Z,-3.50
2018-03-02T15:39:58.611Z,-3.50
2018-03-02T15:42:27.810Z,-3.50
2018-03-02T15:44:57.171Z,-3.60
2018-03-02T15:47:25.559Z,-3.60
2018-03-02T15:49:54.650Z,-3.60
2018-03-02T15:52:23.164Z,-3.60
2018-03-02T15:54:51.667Z,-3.60
2018-03-02T15:57:20.092Z,-3.50
2018-03-02T15:59:48.478Z,-3.20
2018-03-02T16:02:16.905Z,-3.20
2018-03-02T16:04:45.299Z,-3.10
2018-03-02T16:07:13.708Z,-3.10
2018-03-02T16:09:42.141Z,-3.10
2018-03-02T16:12:10.548Z,-3.20
2018-03-02T16:14:38.984Z,-3.10
2018-03-02T16:17:07.388Z,-3.20
2018-03-02T16:19:35.821Z,-3.10
2018-03-02T16:22:04.447Z,-3.20
2018-03-02T16:24:32.945Z,-3.20
2018-03-02T16:27:01.354Z,-3.20
2018-03-02T16:29:30.590Z,-3.20
2018-03-02T16:31:58.987Z,-3.20
2018-03-02T16:34:27.214Z,-3.20
2018-03-02T16:36:55.625Z,-3.20
2018-03-02T16:39:24.401Z,-3.20
2018-03-02T16:41:53.492Z,-3.20
2018-03-02T16:44:21.906Z,-3.20
2018-03-02T16:46:50.330Z,-3.20
2018-03-02T16:49:18.769Z,-3.20
2018-03-02T16:51:47.199Z,-3.20
2018-03-02T16:54:15.627Z,-3.30
2018-03-02T16:56:44.090Z,-3.30
2018-03-02T16:59:12.542Z,-3.30
2018-03-02T17:01:40.934Z,-3.30
2018-03-02T17:04:09.352Z,-3.40
2018-03-02T17:06:37.756Z,-3.30
2018-03-02T17:09:06.171Z,-3.30
2018-03-02T17:11:34.579Z,-3.40
2018-03-02T17:14:03.098Z,-3.40
2018-03-02T17:16:31.532Z,-3.50
2018-03-02T17:18:59.595Z,-3.50
2018-03-02T17:21:28.016Z,-3.50
2018-03-02T17:23:56.094Z,-3.50
2018-03-02T17:26:25.386Z,-3.50
2018-03-02T17:28:53.826Z,-3.50
2018-03-02T17:31:22.295Z,-3.50
2018-03-02T17:33:50.379Z,-3.50
2018-03-02T17:36:18.901Z,-3.40
2018-03-02T17:38:47.338Z,-3.50
2018-03-02T17:41:15.747Z,-3.40
2018-03-02T17:43:44.913Z,-3.40
2018-03-02T17:46:13.335Z,-3.40
2018-03-02T17:48:41.740Z,-3.40
2018-03-02T17:51:10.127Z,-3.40
2018-03-02T17:53:39.314Z,-3.40
2018-03-02T17:56:07.548Z,-3.40
2018-03-02T17:58:35.952Z,-3.40
2018-03-02T18:01:04.739Z,-3.40
2018-03-02T18:03:33.145Z,-3.40
2018-03-02T18:06:01.581Z,-3.40
2018-03-02T18:08:29.996Z,-3.40
2018-03-02T18:10:58.064Z,-3.30
2018-03-02T18:13:26.489Z,-3.30
2018-03-02T18:15:55.675Z,-3.20
2018-03-02T18:18:24.943Z,-3.30
2018-03-02T18:20:53.733Z,-3.30
2018-03-02T18:23:22.154Z,-3.30
2018-03-02T18:25:50.556Z,-3.50
2018-03-02T18:28:18.652Z,-3.50
2018-03-02T18:30:47.816Z,-3.50
2018-03-02T18:33:16.225Z,-3.50
2018-03-02T18:35:44.649Z,-3.50
2018-03-02T18:38:13.103Z,-3.60
2018-03-02T18:40:41.486Z,-3.50
2018-03-02T18:43:09.896Z,-3.60
2018-03-02T18:45:38.302Z,-3.50
2018-03-02T18:48:06.822Z,-3.40
2018-03-02T18:50:35.211Z,-3.50
2018-03-02T18:53:03.618Z,-3.50
2018-03-02T18:55:32.049Z,-3.30
2018-03-02T18:58:00.122Z,-3.30
2018-03-02T19:00:28.513Z,-3.30
2018-03-02T19:02:57.691Z,-3.30
2018-03-02T19:05:26.083Z,-3.30
2018-03-02T19:07:55.484Z,-5.20
2018-03-02T19:10:25.608Z,-3.40
2018-03-02T19:12:55.755Z,-3.50
2018-03-02T19:15:24.935Z,-3.60
2018-03-02T19:17:54.512Z,-3.60
2018-03-02T19:20:23.565Z,-3.40
2018-03-02T19:22:52.259Z,-3.50
2018-03-02T19:25:21.463Z,-3.80
2018-03-02T19:27:49.952Z,-3.70
2018-03-02T19:30:19.236Z,-3.70
2018-03-02T19:32:47.704Z,-3.70
2018-03-02T19:35:16.279Z,-3.60
2018-03-02T19:37:44.598Z,-3.50
2018-03-02T19:40:13.914Z,-3.30
2018-03-02T19:42:42.460Z,-3.40
2018-03-02T19:45:10.654Z,-3.30
2018-03-02T19:47:39.976Z,-3.30
2018-03-02T19:50:08.418Z,-3.30
2018-03-02T19:52:36.925Z,-3.20
2018-03-02T19:55:05.526Z,-3.30
2018-03-02T19:57:34.054Z,-3.30
2018-03-02T20:00:02.195Z,-3.30
2018-03-02T20:02:30.733Z,-3.30
2018-03-02T20:04:59.969Z,-3.40
2018-03-02T20:07:28.389Z,-3.40
2018-03-02T20:09:56.829Z,-3.40
2018-03-02T20:12:26.089Z,-3.50
2018-03-02T20:14:56.109Z,-3.30
2018-03-02T20:17:26.071Z,-3.30
2018-03-02T20:19:54.537Z,-3.30
2018-03-02T20:22:23.236Z,-3.30
2018-03-02T20:24:51.633Z,-3.40
2018-03-02T20:27:20.086Z,-3.30
2018-03-02T20:29:48.564Z,-3.40
2018-03-02T20:32:17.040Z,-3.30
2018-03-02T20:34:45.476Z,-3.40
2018-03-02T20:37:14.689Z,-3.40
2018-03-02T20:39:43.854Z,-3.40
2018-03-02T20:42:12.265Z,-3.50
2018-03-02T20:44:40.684Z,-3.40
2018-03-02T20:47:09.107Z,-3.50
2018-03-02T20:49:38.259Z,-3.40
2018-03-02T20:52:06.666Z,-3.50
2018-03-02T20:54:35.060Z,-3.70
2018-03-02T20:57:04.254Z,-3.60
2018-03-02T20:59:33.420Z,-3.40
2018-03-02T21:02:01.814Z,-3.40
2018-03-02T21:04:30.681Z,-3.40
2018-03-02T21:06:59.204Z,-3.40
2018-03-02T21:09:28.415Z,-3.40
2018-03-02T21:11:56.818Z,-3.50
2018-03-02T21:14:25.799Z,-3.40
2018-03-02T21:16:54.340Z,-3.40
2018-03-02T21:19:23.799Z,-3.40
2018-03-02T21:21:52.209Z,-3.40
2018-03-02T21:24:21.397Z,-3.40
2018-03-02T21:26:49.828Z,-3.40
2018-03-02T21:29:18.233Z,-3.20
2018-03-02T21:31:46.650Z,-3.20
2018-03-02T21:34:18.977Z,-3.40
2018-03-02T21:36:44.406Z,-3.40
2018-03-02T21:39:12.840Z,-3.60
2018-03-02T21:41:41.252Z,-3.50
2018-03-02T21:44:09.700Z,-3.30
2018-03-02T21:46:38.119Z,-3.30
2018-03-02T21:49:06.520Z,-3.20
2018-03-02T21:51:35.730Z,-3.30
2018-03-02T21:54:04.124Z,-3.30
2018-03-02T21:56:32.519Z,-3.20
2018-03-02T21:59:01.154Z,-3.30
2018-03-02T22:01:30.326Z,-3.60
2018-03-02T22:03:58.723Z,-3.60
2018-03-02T22:06:27.916Z,-3.80
2018-03-02T22:08:57.102Z,-3.70
2018-03-02T22:11:26.478Z,-3.70
2018-03-02T22:13:55.667Z,-3.70
2018-03-02T22:16:24.063Z,-3.80
2018-03-02T22:18:52.464Z,-3.70
2018-03-02T22:21:21.660Z,-3.70
2018-03-02T22:23:50.060Z,-3.70
2018-03-02T22:26:18.484Z,-3.70
2018-03-02T22:28:46.934Z,-3.70
2018-03-02T22:31:15.335Z,-3.70
2018-03-02T22:33:43.736Z,-3.80
2018-03-02T22:36:11.974Z,-3.80
2018-03-02T22:38:40.380Z,-3.70
2018-03-02T22:41:08.772Z,-3.60
2018-03-02T22:43:37.293Z,-3.70
2018-03-02T22:46:05.694Z,-3.70
2018-03-02T22:48:34.119Z,-3.70
2018-03-02T22:51:03.293Z,-3.70
2018-03-02T22:53:31.729Z,-3.70
2018-03-02T22:56:00.141Z,-3.60
2018-03-02T22:58:28.552Z,-3.60
2018-03-02T23:00:57.168Z,-3.50
2018-03-02T23:03:26.489Z,-3.40
2018-03-02T23:05:55.208Z,-3.50
2018-03-02T23:08:23.963Z,-3.60
2018-03-02T23:10:52.391Z,-3.50
2018-03-02T23:13:21.564Z,-3.10
2018-03-02T23:15:50.001Z,-3.10
2018-03-02T23:18:18.406Z,-3.00
2018-03-02T23:20:46.808Z,-3.30
2018-03-02T23:23:15.235Z,-3.40
2018-03-02T23:25:43.628Z,-3.50
2018-03-02T23:28:12.035Z,-3.50
2018-03-02T23:30:40.460Z,-3.40
2018-03-02T23:33:08.861Z,-3.40
2018-03-02T23:35:37.291Z,-3.50
2018-03-02T23:38:06.271Z,-3.50
2018-03-02T23:40:35.440Z,-3.50
2018-03-02T23:43:03.873Z,-3.60
2018-03-02T23:45:32.283Z,-3.50
2018-03-02T23:48:00.688Z,-3.50
2018-03-02T23:50:29.122Z,-3.50
2018-03-02T23:52:57.548Z,-3.50
2018-03-02T23:55:25.952Z,-3.20
2018-03-02T23:57:54.904Z,-3.20
